Deerwood, MN (56444)

12:01 AM CDT on August 30, 2016 (GMT -0500)
Bay Lake Eastside Wine Bar | | Change Station

Elev 1257 ft 46.40 °N, 93.82 °W | Updated 2 minutes ago

Haze
Haze
68.4 °F
Feels Like 68.4 °F
N
0.0
Wind Variable Wind from East

Today
High -- | Low -- °F
--% Chance of Precip.
Yesterday
High -- | Low -- °F
Precip. -- in
Pressure 30.16 in
Visibility 0.5 miles
Clouds Mostly Cloudy 100 ft
Dew Point 66 °F
Humidity 91%
Rainfall in
Snow Depth Not available.
6:33 AM 7:57 PM
Waning Crescent, 5% visible
METAR KAIT 300453Z AUTO 00000KT 1/2SM HZ BKN001 19/17 A3016 RMK AO2
Pressure 30.16 in
Visibility 0.5 miles
Clouds Mostly Cloudy 100 ft
Dew Point 66 °F
Humidity 91%
Rainfall in
Snow Depth Not available.
6:33 AM 7:57 PM
Waning Crescent, 5% visible
METAR KAIT 300453Z AUTO 00000KT 1/2SM HZ BKN001 19/17 A3016 RMK AO2

10-Day Weather Forecast

Almanac

Astronomy

Aug. 30, 2016 Rise Set
Actual Time
Civil Twilight
Nautical Twilight
Astronomical Twilight
Moon
Length of Visible Light
Length of Day
Tomorrow will be .
, % of the Moon is Illuminated

Today's Extremes

State Highs State Lows

Community

WunderPhotos

Upload Photos

1,935,791 photos uploaded!

WunderBlog® & News

Nearby

Air Quality

  Air Quality AQ Index Pollutant
Not available.

Snow Depth

Station Depth Elevation

Earthquake Activity

City Distance Mag. Time & Date
Minimum magnitude displayed is 2.5.

Coastal Water Temperatures

Place Temperature

Stations

Nearby Weather Stations

Station Location Temp. Windchill Dew Point Humidity Wind Precip. Elev Updated Type
                   

Watches & Warnings

There are currently no watches in effect.